| time (UTC) | temp F | wind direction | speed MPH | gust MPH | rain 1hr in | rain 24hr in | rain mn in | humidity % | barometer mb |
| 20260507163731 | 54 | 163 | 5.0 | 13.0 | 0.00 | 0.00 | 0.00 | 47 | 1015.0 |
| 20260507163229 | 54 | 168 | 6.0 | 16.0 | 0.00 | 0.00 | 0.00 | 47 | 1015.1 |
| 20260507162725 | 54 | 222 | 9.0 | 11.0 | 0.00 | 0.00 | 0.00 | 47 | 1015.2 |
| 20260507162221 | 52 | 134 | 13.0 | 16.0 | 0.00 | 0.00 | 0.00 | 46 | 1015.0 |
| 20260507161718 | 52 | 206 | 2.0 | 12.0 | 0.00 | 0.00 | 0.00 | 45 | 1015.4 |
| 20260507161214 | 52 | 171 | 8.0 | 14.0 | 0.00 | 0.00 | 0.00 | 44 | 1015.3 |
| 20260507160710 | 53 | 213 | 7.0 | 17.0 | 0.00 | 0.00 | 0.00 | 49 | 1015.4 |
| 20260507160207 | 53 | 148 | 6.0 | 10.0 | 0.00 | 0.00 | 0.00 | 47 | 1015.5 |
| 20260507155703 | 51 | 41 | 3.0 | 8.0 | 0.00 | 0.00 | 0.00 | 43 | 1015.7 |
| 20260507155159 | 52 | 218 | 10.0 | 11.0 | 0.00 | 0.00 | 0.00 | 45 | 1015.6 |
| 20260507154655 | 51 | 204 | 9.0 | 16.0 | 0.00 | 0.00 | 0.00 | 45 | 1015.8 |
| 20260507154153 | 51 | 195 | 4.0 | 10.0 | 0.00 | 0.00 | 0.00 | 46 | 1016.0 |
| 20260507153650 | 51 | 251 | 4.0 | 11.0 | 0.00 | 0.00 | 0.00 | 49 | 1016.0 |
| 20260507153146 | 51 | 228 | 3.0 | 8.0 | 0.00 | 0.00 | 0.00 | 45 | 1016.1 |
| 20260507152643 | 50 | 189 | 5.0 | 13.0 | 0.00 | 0.00 | 0.00 | 47 | 1016.4 |
| 20260507152138 | 50 | 292 | 1.0 | 6.0 | 0.00 | 0.00 | 0.00 | 47 | 1016.4 |
| 20260507151635 | 49 | 202 | 7.0 | 13.0 | 0.00 | 0.00 | 0.00 | 46 | 1016.3 |
| 20260507151132 | 51 | 165 | 5.0 | 7.0 | 0.00 | 0.00 | 0.00 | 54 | 1016.6 |
| 20260507150629 | 49 | 232 | 4.0 | 12.0 | 0.00 | 0.00 | 0.00 | 48 | 1016.9 |
| 20260507150125 | 48 | 200 | 4.0 | 11.0 | 0.00 | 0.00 | 0.00 | 50 | 1016.7 |
| 20260507145620 | 49 | 211 | 6.0 | 13.0 | 0.00 | 0.00 | 0.00 | 50 | 1016.9 |
| 20260507145118 | 49 | 272 | 2.0 | 9.0 | 0.00 | 0.00 | 0.00 | 52 | 1017.2 |
| 20260507144614 | 49 | 180 | 3.0 | 12.0 | 0.00 | 0.00 | 0.00 | 51 | 1017.1 |
| 20260507144113 | 48 | 234 | 9.0 | 16.0 | 0.00 | 0.00 | 0.00 | 50 | 1017.2 |
| 20260507143609 | 48 | 183 | 6.0 | 11.0 | 0.00 | 0.00 | 0.00 | 52 | 1017.0 |
| 20260507143106 | 48 | 138 | 5.0 | 11.0 | 0.00 | 0.00 | 0.00 | 53 | 1016.9 |
| 20260507142601 | 47 | 183 | 6.0 | 10.0 | 0.00 | 0.00 | 0.00 | 51 | 1017.0 |
| 20260507142059 | 46 | 198 | 7.0 | 13.0 | 0.00 | 0.00 | 0.00 | 55 | 1017.3 |
| 20260507141554 | 47 | 215 | 3.0 | 7.0 | 0.00 | 0.00 | 0.00 | 55 | 1017.4 |
| 20260507141051 | 46 | 154 | 5.0 | 8.0 | 0.00 | 0.00 | 0.00 | 54 | 1017.1 |
| 20260507140548 | 47 | 217 | 5.0 | 8.0 | 0.00 | 0.00 | 0.00 | 53 | 1017.4 |
| 20260507140046 | 46 | 266 | 3.0 | 7.0 | 0.00 | 0.00 | 0.00 | 54 | 1017.4 |
| 20260507135542 | 46 | 193 | 3.0 | 12.0 | 0.00 | 0.00 | 0.00 | 54 | 1017.4 |
| 20260507135040 | 46 | 187 | 4.0 | 8.0 | 0.00 | 0.00 | 0.00 | 56 | 1017.3 |
| 20260507134536 | 44 | 198 | 4.0 | 11.0 | 0.00 | 0.00 | 0.00 | 55 | 1017.5 |
| 20260507134032 | 45 | 182 | 9.0 | 9.0 | 0.00 | 0.00 | 0.00 | 55 | 1017.6 |
| 20260507133528 | 44 | 205 | 3.0 | 7.0 | 0.00 | 0.00 | 0.00 | 57 | 1017.7 |
| 20260507133027 | 43 | 184 | 4.0 | 9.0 | 0.00 | 0.00 | 0.00 | 59 | 1017.6 |
| 20260507132523 | 43 | 194 | 4.0 | 10.0 | 0.00 | 0.00 | 0.00 | 60 | 1017.8 |
| 20260507132019 | 44 | 178 | 4.0 | 9.0 | 0.00 | 0.00 | 0.00 | 61 | 1017.7 |
| 20260507131516 | 43 | 205 | 4.0 | 5.0 | 0.00 | 0.00 | 0.00 | 62 | 1017.6 |
| 20260507131013 | 43 | 179 | 7.0 | 8.0 | 0.00 | 0.00 | 0.00 | 61 | 1017.7 |
| 20260507130510 | 43 | 187 | 3.0 | 10.0 | 0.00 | 0.00 | 0.00 | 61 | 1017.6 |
| 20260507130009 | 43 | 193 | 6.0 | 11.0 | 0.00 | 0.00 | 0.00 | 61 | 1017.6 |
| 20260507125507 | 43 | 169 | 3.0 | 11.0 | 0.00 | 0.00 | 0.00 | 60 | 1017.6 |
| 20260507125004 | 43 | 196 | 4.0 | 13.0 | 0.00 | 0.00 | 0.00 | 60 | 1017.7 |
| 20260507124500 | 43 | 191 | 7.0 | 9.0 | 0.00 | 0.00 | 0.00 | 61 | 1017.7 |
| 20260507123958 | 43 | 214 | 4.0 | 9.0 | 0.00 | 0.00 | 0.00 | 63 | 1017.3 |
| 20260507123455 | 42 | 191 | 5.0 | 10.0 | 0.00 | 0.00 | 0.00 | 66 | 1017.0 |
| 20260507122951 | 42 | 165 | 5.0 | 8.0 | 0.00 | 0.00 | 0.00 | 67 | 1017.3 |
| 20260507122447 | 41 | 183 | 2.0 | 6.0 | 0.00 | 0.00 | 0.00 | 71 | 1017.4 |
| 20260507121944 | 40 | 181 | 7.0 | 9.0 | 0.00 | 0.00 | 0.00 | 70 | 1017.3 |
| 20260507121439 | 40 | 194 | 4.0 | 7.0 | 0.00 | 0.00 | 0.00 | 71 | 1017.5 |
| 20260507120936 | 39 | 186 | 4.0 | 8.0 | 0.00 | 0.00 | 0.00 | 72 | 1017.3 |
| 20260507120432 | 39 | 183 | 4.0 | 7.0 | 0.00 | 0.00 | 0.00 | 73 | 1017.2 |
| 20260507115928 | 39 | 185 | 4.0 | 6.0 | 0.00 | 0.00 | 0.00 | 73 | 1017.2 |
| 20260507115424 | 38 | 204 | 3.0 | 5.0 | 0.00 | 0.00 | 0.00 | 74 | 1017.4 |
| 20260507114920 | 38 | 180 | 3.0 | 7.0 | 0.00 | 0.00 | 0.00 | 75 | 1017.3 |
| 20260507114417 | 37 | 175 | 3.0 | 6.0 | 0.00 | 0.00 | 0.00 | 76 | 1017.3 |
| 20260507113914 | 37 | 158 | 5.0 | 8.0 | 0.00 | 0.00 | 0.00 | 77 | 1017.1 |
| 20260507113411 | 36 | 179 | 4.0 | 9.0 | 0.00 | 0.00 | 0.00 | 77 | 1017.2 |
| 20260507112909 | 36 | 165 | 4.0 | 6.0 | 0.00 | 0.00 | 0.00 | 78 | 1017.2 |
| 20260507112406 | 36 | 192 | 5.0 | 8.0 | 0.00 | 0.00 | 0.00 | 78 | 1017.1 |
| 20260507111904 | 35 | 180 | 7.0 | 9.0 | 0.00 | 0.00 | 0.00 | 79 | 1017.1 |
| 20260507111400 | 35 | 178 | 3.0 | 7.0 | 0.00 | 0.00 | 0.00 | 80 | 1017.1 |
| 20260507110856 | 35 | 201 | 1.0 | 7.0 | 0.00 | 0.00 | 0.00 | 80 | 1016.9 |
| 20260507110352 | 35 | 149 | 2.0 | 8.0 | 0.00 | 0.00 | 0.00 | 79 | 1017.0 |
| 20260507105850 | 35 | 162 | 3.0 | 9.0 | 0.00 | 0.00 | 0.00 | 80 | 1016.9 |
| 20260507105346 | 35 | 198 | 4.0 | 8.0 | 0.00 | 0.00 | 0.00 | 80 | 1017.1 |
| 20260507104843 | 35 | 152 | 6.0 | 8.0 | 0.00 | 0.00 | 0.00 | 81 | 1017.0 |
| 20260507104340 | 34 | 140 | 4.0 | 6.0 | 0.00 | 0.00 | 0.00 | 81 | 1016.8 |
| 20260507103835 | 33 | 177 | 2.0 | 5.0 | 0.00 | 0.00 | 0.00 | 83 | 1017.0 |
| 20260507103332 | 33 | 152 | 3.0 | 5.0 | 0.00 | 0.00 | 0.00 | 85 | 1016.8 |
| 20260507102829 | 33 | 147 | 2.0 | 4.0 | 0.00 | 0.00 | 0.00 | 87 | 1016.9 |
| 20260507102325 | 32 | 120 | 3.0 | 3.0 | 0.00 | 0.00 | 0.00 | 87 | 1016.8 |
| 20260507101821 | 32 | 115 | 2.0 | 3.0 | 0.00 | 0.00 | 0.00 | 86 | 1017.0 |
| 20260507101316 | 32 | 110 | 1.0 | 3.0 | 0.00 | 0.00 | 0.00 | 84 | 1016.8 |
| 20260507100813 | 33 | 100 | 2.0 | 3.0 | 0.00 | 0.00 | 0.00 | 83 | 1016.9 |
| 20260507100312 | 34 | 152 | 2.0 | 3.0 | 0.00 | 0.00 | 0.00 | 83 | 1016.9 |
| 20260507095810 | 34 | 139 | 2.0 | 4.0 | 0.00 | 0.00 | 0.00 | 83 | 1016.6 |
| 20260507095306 | 34 | 138 | 2.0 | 3.0 | 0.00 | 0.00 | 0.00 | 82 | 1016.7 |
| 20260507094803 | 35 | 116 | 2.0 | 3.0 | 0.00 | 0.00 | 0.00 | 81 | 1016.9 |
| 20260507094259 | 35 | 135 | 1.0 | 4.0 | 0.00 | 0.00 | 0.00 | 81 | 1016.9 |
| 20260507093756 | 35 | 183 | 1.0 | 3.0 | 0.00 | 0.00 | 0.00 | 81 | 1017.1 |
| 20260507093255 | 35 | 142 | 2.0 | 4.0 | 0.00 | 0.00 | 0.00 | 81 | 1016.9 |
| 20260507092752 | 35 | 156 | 3.0 | 6.0 | 0.00 | 0.00 | 0.00 | 81 | 1017.2 |
| 20260507092248 | 34 | 127 | 2.0 | 4.0 | 0.00 | 0.00 | 0.00 | 81 | 1017.0 |
| 20260507091745 | 34 | 166 | 1.0 | 5.0 | 0.00 | 0.00 | 0.00 | 81 | 1017.0 |
| 20260507091242 | 34 | 149 | 3.0 | 3.0 | 0.00 | 0.00 | 0.00 | 81 | 1016.9 |
| 20260507090737 | 34 | 144 | 2.0 | 4.0 | 0.00 | 0.00 | 0.00 | 81 | 1016.9 |
| 20260507090234 | 34 | 138 | 3.0 | 5.0 | 0.00 | 0.00 | 0.00 | 82 | 1017.1 |
| 20260507085731 | 34 | 133 | 3.0 | 4.0 | 0.00 | 0.00 | 0.00 | 83 | 1017.0 |
| 20260507085228 | 34 | 122 | 3.0 | 4.0 | 0.00 | 0.00 | 0.00 | 82 | 1016.8 |
| 20260507084725 | 34 | 126 | 3.0 | 4.0 | 0.00 | 0.00 | 0.00 | 82 | 1016.9 |
| 20260507084221 | 34 | 112 | 3.0 | 3.0 | 0.00 | 0.00 | 0.00 | 81 | 1016.9 |
| 20260507083719 | 34 | 131 | 2.0 | 3.0 | 0.00 | 0.00 | 0.00 | 81 | 1016.7 |
| 20260507083215 | 35 | 117 | 2.0 | 4.0 | 0.00 | 0.00 | 0.00 | 81 | 1016.9 |
| 20260507082711 | 35 | 111 | 2.0 | 4.0 | 0.00 | 0.00 | 0.00 | 81 | 1017.0 |
| 20260507082207 | 35 | 120 | 2.0 | 4.0 | 0.00 | 0.00 | 0.00 | 79 | 1016.8 |
| 20260507081704 | 35 | 115 | 3.0 | 4.0 | 0.00 | 0.00 | 0.00 | 77 | 1016.7 |
| 20260507081200 | 35 | 113 | 3.0 | 3.0 | 0.00 | 0.00 | 0.00 | 75 | 1016.8 |
| 20260507080657 | 35 | 92 | 1.0 | 3.0 | 0.00 | 0.00 | 0.00 | 73 | 1016.8 |
| 20260507080153 | 36 | 105 | 2.0 | 3.0 | 0.00 | 0.00 | 0.00 | 73 | 1017.0 |
| 20260507075648 | 36 | 141 | 3.0 | 4.0 | 0.00 | 0.00 | 0.00 | 73 | 1016.9 |
| 20260507075145 | 36 | 131 | 2.0 | 3.0 | 0.00 | 0.00 | 0.00 | 73 | 1016.9 |
| 20260507074641 | 36 | 95 | 0.0 | 2.0 | 0.00 | 0.00 | 0.00 | 72 | 1016.8 |
| 20260507074140 | 37 | 122 | 2.0 | 3.0 | 0.00 | 0.00 | 0.00 | 72 | 1017.0 |
| 20260507073636 | 37 | 261 | 1.0 | 3.0 | 0.00 | 0.00 | 0.00 | 71 | 1017.0 |
| 20260507073132 | 37 | 102 | 0.0 | 3.0 | 0.00 | 0.00 | 0.00 | 71 | 1017.3 |
| 20260507072630 | 37 | 129 | 2.0 | 3.0 | 0.00 | 0.00 | 0.00 | 70 | 1017.1 |
| 20260507072127 | 37 | 126 | 2.0 | 4.0 | 0.00 | 0.00 | 0.00 | 70 | 1017.2 |
| 20260507071625 | 37 | 157 | 3.0 | 4.0 | 0.00 | 0.00 | 0.00 | 70 | 1017.1 |
| 20260507071121 | 37 | 119 | 1.0 | 4.0 | 0.00 | 0.00 | 0.00 | 70 | 1017.4 |
| 20260507070618 | 37 | 52 | 1.0 | 3.0 | 0.00 | 0.00 | 0.00 | 70 | 1017.0 |
| 20260507070115 | 37 | 158 | 2.0 | 2.0 | 0.00 | 0.00 | 0.00 | 70 | 1017.0 |
| 20260507065611 | 37 | 103 | 2.0 | 3.0 | 0.00 | 0.00 | 0.00 | 69 | 1017.3 |
| 20260507065108 | 38 | 166 | 1.0 | 2.0 | 0.00 | 0.00 | 0.00 | 69 | 1017.4 |
| 20260507064606 | 38 | 176 | 2.0 | 3.0 | 0.00 | 0.00 | 0.00 | 69 | 1017.2 |
| 20260507064105 | 39 | 131 | 0.0 | 3.0 | 0.00 | 0.00 | 0.00 | 68 | 1017.3 |
| 20260507063602 | 39 | 176 | 2.0 | 3.0 | 0.00 | 0.00 | 0.00 | 66 | 1017.3 |
| 20260507063059 | 39 | 103 | 0.0 | 4.0 | 0.00 | 0.00 | 0.00 | 66 | 1017.3 |
| 20260507062555 | 40 | 206 | 0.0 | 7.0 | 0.00 | 0.00 | 0.00 | 65 | 1017.3 |
| 20260507062053 | 40 | 247 | 2.0 | 5.0 | 0.00 | 0.00 | 0.00 | 66 | 1017.2 |
| 20260507061550 | 39 | 262 | 3.0 | 5.0 | 0.00 | 0.00 | 0.00 | 67 | 1017.4 |
| 20260507061048 | 39 | 106 | 0.0 | 4.0 | 0.00 | 0.00 | 0.00 | 68 | 1017.3 |
| 20260507060546 | 39 | 233 | 1.0 | 6.0 | 0.00 | 0.00 | 0.00 | 69 | 1017.5 |
| 20260507060042 | 38 | 154 | 2.0 | 3.0 | 0.00 | 0.00 | 0.00 | 69 | 1017.5 |
| 20260507055542 | 38 | 54 | 2.0 | 2.0 | 0.00 | 0.00 | 0.00 | 70 | 1017.3 |
| 20260507055039 | 38 | 126 | 1.0 | 3.0 | 0.00 | 0.00 | 0.00 | 70 | 1017.3 |
| 20260507054535 | 38 | 103 | 2.0 | 3.0 | 0.00 | 0.00 | 0.00 | 69 | 1017.6 |
| 20260507054032 | 38 | 133 | 2.0 | 3.0 | 0.00 | 0.00 | 0.00 | 69 | 1017.5 |
| 20260507053530 | 38 | 131 | 2.0 | 3.0 | 0.00 | 0.00 | 0.00 | 69 | 1017.6 |
| 20260507053029 | 39 | 223 | 2.0 | 3.0 | 0.00 | 0.00 | 0.00 | 69 | 1017.5 |
| 20260507052526 | 38 | 111 | 0.0 | 3.0 | 0.00 | 0.00 | 0.00 | 69 | 1017.4 |
| 20260507052022 | 38 | 117 | 2.0 | 4.0 | 0.00 | 0.00 | 0.00 | 70 | 1017.6 |
| 20260507051520 | 38 | 122 | 1.0 | 2.0 | 0.00 | 0.00 | 0.00 | 70 | 1017.5 |
| 20260507051017 | 38 | 130 | 1.0 | 3.0 | 0.00 | 0.00 | 0.00 | 70 | 1017.5 |
| 20260507050513 | 38 | 122 | 0.0 | 2.0 | 0.00 | 0.00 | 0.00 | 69 | 1017.5 |
| 20260507050010 | 38 | 145 | 1.0 | 2.0 | 0.00 | 0.00 | 0.00 | 70 | 1017.5 |
| 20260507045507 | 39 | 136 | 1.0 | 3.0 | 0.00 | 0.00 | 0.00 | 68 | 1017.4 |
| 20260507045004 | 39 | 112 | 0.0 | 2.0 | 0.00 | 0.00 | 0.00 | 68 | 1017.6 |
| 20260507044501 | 39 | 101 | 1.0 | 2.0 | 0.00 | 0.00 | 0.00 | 67 | 1017.4 |
| 20260507043957 | 40 | 123 | 2.0 | 2.0 | 0.00 | 0.00 | 0.00 | 64 | 1017.5 |
| 20260507043453 | 41 | 99 | 1.0 | 3.0 | 0.00 | 0.00 | 0.00 | 63 | 1017.5 |
| 20260507042949 | 41 | 124 | 2.0 | 3.0 | 0.00 | 0.00 | 0.00 | 63 | 1017.5 |
| 20260507042446 | 41 | 101 | 1.0 | 3.0 | 0.00 | 0.00 | 0.00 | 62 | 1017.4 |
| 20260507041942 | 41 | 281 | 2.0 | 3.0 | 0.00 | 0.00 | 0.00 | 61 | 1017.5 |
| 20260507041439 | 42 | 100 | 2.0 | 8.0 | 0.00 | 0.00 | 0.00 | 61 | 1017.5 |
| 20260507040936 | 42 | 32 | 0.0 | 2.0 | 0.00 | 0.00 | 0.00 | 61 | 1017.4 |
| 20260507040432 | 42 | 50 | 0.0 | 5.0 | 0.00 | 0.00 | 0.00 | 60 | 1017.4 |
| 20260507035928 | 42 | 52 | 1.0 | 3.0 | 0.00 | 0.00 | 0.00 | 60 | 1017.7 |
| 20260507035425 | 42 | 246 | 4.0 | 5.0 | 0.00 | 0.00 | 0.00 | 60 | 1017.4 |
| 20260507034922 | 42 | 38 | 2.0 | 5.0 | 0.00 | 0.00 | 0.00 | 60 | 1017.5 |
| 20260507034419 | 43 | 193 | 2.0 | 8.0 | 0.00 | 0.00 | 0.00 | 59 | 1017.7 |
| 20260507033916 | 43 | 238 | 0.0 | 5.0 | 0.00 | 0.00 | 0.00 | 59 | 1017.5 |
| 20260507033414 | 43 | 215 | 4.0 | 6.0 | 0.00 | 0.00 | 0.00 | 59 | 1017.8 |
| 20260507032911 | 43 | 273 | 5.0 | 6.0 | 0.00 | 0.00 | 0.00 | 59 | 1017.6 |
| 20260507032408 | 43 | 210 | 1.0 | 7.0 | 0.00 | 0.00 | 0.00 | 59 | 1017.8 |
| 20260507031904 | 43 | 55 | 0.0 | 3.0 | 0.00 | 0.00 | 0.00 | 58 | 1017.7 |
| 20260507031401 | 43 | 273 | 2.0 | 11.0 | 0.00 | 0.00 | 0.00 | 57 | 1017.6 |
| 20260507030857 | 43 | 227 | 3.0 | 6.0 | 0.00 | 0.00 | 0.00 | 57 | 1017.6 |
| 20260507030355 | 43 | 356 | 2.0 | 5.0 | 0.00 | 0.00 | 0.00 | 56 | 1017.6 |
| 20260507025851 | 44 | 308 | 3.0 | 9.0 | 0.00 | 0.00 | 0.00 | 56 | 1017.5 |
| 20260507025349 | 44 | 118 | 2.0 | 6.0 | 0.00 | 0.00 | 0.00 | 55 | 1017.6 |
| 20260507024846 | 44 | 340 | 1.0 | 8.0 | 0.00 | 0.00 | 0.00 | 54 | 1017.5 |
| 20260507024344 | 44 | 185 | 3.0 | 10.0 | 0.00 | 0.00 | 0.00 | 54 | 1017.4 |
| 20260507023839 | 44 | 230 | 11.0 | 12.0 | 0.00 | 0.00 | 0.00 | 53 | 1017.3 |
| 20260507023336 | 45 | 84 | 3.0 | 12.0 | 0.00 | 0.00 | 0.00 | 53 | 1017.3 |
| 20260507022834 | 45 | 205 | 6.0 | 11.0 | 0.00 | 0.00 | 0.00 | 53 | 1017.1 |
| 20260507022330 | 45 | 100 | 0.0 | 15.0 | 0.00 | 0.00 | 0.00 | 53 | 1017.1 |
| 20260507021826 | 45 | 262 | 3.0 | 9.0 | 0.00 | 0.00 | 0.00 | 52 | 1017.3 |
| 20260507021321 | 45 | 223 | 2.0 | 11.0 | 0.00 | 0.00 | 0.00 | 52 | 1017.1 |
| 20260507020820 | 45 | 213 | 3.0 | 11.0 | 0.00 | 0.00 | 0.00 | 52 | 1016.9 |
| 20260507020316 | 45 | 236 | 5.0 | 10.0 | 0.00 | 0.00 | 0.00 | 51 | 1016.8 |
| 20260507015814 | 45 | 214 | 2.0 | 9.0 | 0.00 | 0.00 | 0.00 | 51 | 1017.0 |
| 20260507015311 | 46 | 250 | 1.0 | 9.0 | 0.00 | 0.00 | 0.00 | 51 | 1016.9 |
| 20260507014808 | 46 | 259 | 5.0 | 10.0 | 0.00 | 0.00 | 0.00 | 50 | 1016.9 |
| 20260507014304 | 46 | 216 | 3.0 | 13.0 | 0.00 | 0.00 | 0.00 | 50 | 1016.9 |
| 20260507013800 | 46 | 183 | 3.0 | 11.0 | 0.00 | 0.00 | 0.00 | 50 | 1016.8 |
| 20260507013258 | 46 | 227 | 8.0 | 16.0 | 0.00 | 0.00 | 0.00 | 49 | 1016.6 |
| 20260507012755 | 47 | 233 | 5.0 | 15.0 | 0.00 | 0.00 | 0.00 | 50 | 1016.7 |
| 20260507012250 | 47 | 249 | 6.0 | 14.0 | 0.00 | 0.00 | 0.00 | 50 | 1016.6 |
| 20260507011749 | 47 | 176 | 4.0 | 9.0 | 0.00 | 0.00 | 0.00 | 50 | 1016.7 |
| 20260507011245 | 47 | 174 | 4.0 | 12.0 | 0.00 | 0.00 | 0.00 | 50 | 1016.7 |
| 20260507010744 | 47 | 208 | 2.0 | 15.0 | 0.00 | 0.00 | 0.00 | 50 | 1016.3 |
| 20260507010241 | 47 | 178 | 4.0 | 11.0 | 0.00 | 0.00 | 0.00 | 50 | 1016.7 |
| 20260507005738 | 48 | 284 | 3.0 | 12.0 | 0.00 | 0.00 | 0.00 | 49 | 1016.3 |
| 20260507005234 | 48 | 188 | 1.0 | 11.0 | 0.00 | 0.00 | 0.00 | 50 | 1016.6 |
| 20260507004731 | 48 | 222 | 8.0 | 18.0 | 0.00 | 0.00 | 0.00 | 48 | 1016.3 |
| 20260507004229 | 48 | 23 | 3.0 | 16.0 | 0.00 | 0.00 | 0.00 | 49 | 1016.2 |
| 20260507003725 | 49 | 214 | 4.0 | 22.0 | 0.00 | 0.00 | 0.00 | 48 | 1016.1 |
| 20260507003220 | 49 | 213 | 2.0 | 15.0 | 0.00 | 0.00 | 0.00 | 47 | 1016.0 |
| 20260507002716 | 50 | 263 | 8.0 | 17.0 | 0.00 | 0.00 | 0.00 | 47 | 1016.1 |
| 20260507002213 | 50 | 222 | 8.0 | 25.0 | 0.00 | 0.00 | 0.00 | 46 | 1016.2 |
| 20260507001709 | 50 | 220 | 12.0 | 18.0 | 0.00 | 0.00 | 0.00 | 46 | 1016.0 |
| 20260507001207 | 50 | 268 | 9.0 | 15.0 | 0.00 | 0.00 | 0.00 | 47 | 1016.0 |
| 20260507000703 | 50 | 225 | 10.0 | 21.0 | 0.00 | 0.00 | 0.00 | 47 | 1016.0 |
| 20260507000159 | 50 | 269 | 3.0 | 22.0 | 0.00 | 0.00 | 0.00 | 47 | 1016.0 |
| 20260506235656 | 50 | 275 | 4.0 | 22.0 | 0.00 | 0.00 | 0.00 | 49 | 1015.8 |
| 20260506235151 | 51 | 224 | 10.0 | 13.0 | 0.00 | 0.00 | 0.00 | 47 | 1015.5 |
| 20260506234649 | 51 | 225 | 11.0 | 17.0 | 0.00 | 0.00 | 0.00 | 46 | 1015.8 |
| 20260506234145 | 51 | 173 | 6.0 | 12.0 | 0.00 | 0.00 | 0.00 | 46 | 1015.6 |
| 20260506233643 | 51 | 244 | 8.0 | 21.0 | 0.00 | 0.00 | 0.00 | 46 | 1015.6 |
| 20260506233139 | 51 | 200 | 5.0 | 14.0 | 0.00 | 0.00 | 0.00 | 45 | 1015.5 |
| 20260506232636 | 51 | 223 | 13.0 | 16.0 | 0.00 | 0.00 | 0.00 | 45 | 1015.4 |
| 20260506232131 | 51 | 287 | 6.0 | 12.0 | 0.00 | 0.00 | 0.00 | 45 | 1015.5 |
| 20260506231629 | 51 | 224 | 8.0 | 12.0 | 0.00 | 0.00 | 0.00 | 45 | 1015.6 |
| 20260506231127 | 52 | 220 | 6.0 | 13.0 | 0.00 | 0.00 | 0.00 | 45 | 1015.4 |
| 20260506230624 | 52 | 226 | 2.0 | 12.0 | 0.00 | 0.00 | 0.00 | 46 | 1015.5 |
| 20260506230121 | 51 | 267 | 3.0 | 13.0 | 0.00 | 0.00 | 0.00 | 45 | 1015.5 |
| 20260506225617 | 52 | 242 | 6.0 | 17.0 | 0.00 | 0.00 | 0.00 | 45 | 1015.5 |
| 20260506225114 | 52 | 206 | 4.0 | 16.0 | 0.00 | 0.00 | 0.00 | 46 | 1015.4 |
| 20260506224610 | 52 | 126 | 8.0 | 18.0 | 0.00 | 0.00 | 0.00 | 45 | 1015.1 |
| 20260506224107 | 52 | 243 | 9.0 | 13.0 | 0.00 | 0.00 | 0.00 | 45 | 1015.2 |
| 20260506223603 | 52 | 202 | 10.0 | 13.0 | 0.00 | 0.00 | 0.00 | 45 | 1015.4 |
| 20260506223059 | 52 | 251 | 7.0 | 16.0 | 0.00 | 0.00 | 0.00 | 44 | 1015.4 |
| 20260506222556 | 52 | 245 | 6.0 | 14.0 | 0.00 | 0.00 | 0.00 | 44 | 1015.0 |
| 20260506222052 | 52 | 191 | 15.0 | 16.0 | 0.00 | 0.00 | 0.00 | 44 | 1015.2 |
| 20260506221550 | 53 | 214 | 13.0 | 18.0 | 0.00 | 0.00 | 0.00 | 43 | 1015.1 |
| 20260506221048 | 52 | 181 | 4.0 | 18.0 | 0.00 | 0.00 | 0.00 | 46 | 1015.0 |
| 20260506220544 | 52 | 257 | 5.0 | 16.0 | 0.00 | 0.00 | 0.00 | 45 | 1014.8 |
| 20260506220039 | 52 | 281 | 4.0 | 17.0 | 0.00 | 0.00 | 0.00 | 44 | 1015.0 |
| 20260506215537 | 53 | 265 | 5.0 | 15.0 | 0.00 | 0.00 | 0.00 | 44 | 1014.9 |
| 20260506215032 | 53 | 202 | 4.0 | 11.0 | 0.00 | 0.00 | 0.00 | 44 | 1014.9 |
| 20260506214529 | 53 | 243 | 9.0 | 12.0 | 0.00 | 0.00 | 0.00 | 44 | 1014.9 |
| 20260506214026 | 53 | 265 | 4.0 | 14.0 | 0.00 | 0.00 | 0.00 | 44 | 1015.0 |
| 20260506213525 | 54 | 261 | 8.0 | 13.0 | 0.00 | 0.00 | 0.00 | 43 | 1014.8 |
| 20260506213021 | 56 | 258 | 5.0 | 12.0 | 0.00 | 0.00 | 0.00 | 44 | 1014.6 |
| 20260506212518 | 54 | 285 | 3.0 | 8.0 | 0.00 | 0.00 | 0.00 | 45 | 1014.8 |
| 20260506212013 | 54 | 195 | 3.0 | 16.0 | 0.00 | 0.00 | 0.00 | 43 | 1014.7 |
| 20260506211509 | 55 | 253 | 4.0 | 13.0 | 0.00 | 0.00 | 0.00 | 43 | 1014.9 |
| 20260506211007 | 54 | 227 | 5.0 | 13.0 | 0.00 | 0.00 | 0.00 | 43 | 1014.8 |
| 20260506210503 | 55 | 224 | 6.0 | 14.0 | 0.00 | 0.00 | 0.00 | 42 | 1014.8 |
| 20260506210000 | 53 | 238 | 13.0 | 13.0 | 0.00 | 0.00 | 0.00 | 43 | 1014.8 |
| 20260506205456 | 54 | 257 | 9.0 | 17.0 | 0.00 | 0.00 | 0.00 | 42 | 1014.8 |
| 20260506204952 | 53 | 202 | 4.0 | 17.0 | 0.00 | 0.00 | 0.00 | 42 | 1014.7 |
| 20260506204450 | 54 | 217 | 7.0 | 17.0 | 0.00 | 0.00 | 0.00 | 41 | 1014.7 |
| 20260506203947 | 54 | 209 | 6.0 | 12.0 | 0.00 | 0.00 | 0.00 | 41 | 1014.7 |
| 20260506203444 | 54 | 185 | 8.0 | 12.0 | 0.00 | 0.00 | 0.00 | 41 | 1014.7 |
| 20260506202941 | 54 | 204 | 12.0 | 16.0 | 0.00 | 0.00 | 0.00 | 41 | 1014.9 |
| 20260506202438 | 54 | 245 | 7.0 | 11.0 | 0.00 | 0.00 | 0.00 | 40 | 1015.0 |
| 20260506201934 | 54 | 240 | 9.0 | 16.0 | 0.00 | 0.00 | 0.00 | 40 | 1015.0 |
| 20260506201432 | 54 | 210 | 6.0 | 13.0 | 0.00 | 0.00 | 0.00 | 42 | 1014.8 |
| 20260506200928 | 54 | 208 | 5.0 | 11.0 | 0.00 | 0.00 | 0.00 | 39 | 1015.0 |
| 20260506200425 | 54 | 184 | 5.0 | 12.0 | 0.00 | 0.00 | 0.00 | 41 | 1014.9 |
| 20260506195921 | 54 | 215 | 3.0 | 13.0 | 0.00 | 0.00 | 0.00 | 40 | 1015.0 |
| 20260506195419 | 56 | 223 | 11.0 | 18.0 | 0.00 | 0.00 | 0.00 | 39 | 1015.0 |
| 20260506194915 | 55 | 210 | 7.0 | 13.0 | 0.00 | 0.00 | 0.00 | 40 | 1015.0 |
| 20260506194412 | 56 | 164 | 9.0 | 11.0 | 0.00 | 0.00 | 0.00 | 39 | 1014.9 |
| 20260506193909 | 54 | 223 | 4.0 | 13.0 | 0.00 | 0.00 | 0.00 | 40 | 1015.1 |
| 20260506193406 | 55 | 220 | 13.0 | 17.0 | 0.00 | 0.00 | 0.00 | 38 | 1015.0 |
| 20260506192903 | 55 | 177 | 7.0 | 11.0 | 0.00 | 0.00 | 0.00 | 43 | 1015.2 |
| 20260506192400 | 54 | 186 | 7.0 | 11.0 | 0.00 | 0.00 | 0.00 | 41 | 1015.3 |
| 20260506191856 | 53 | 237 | 5.0 | 14.0 | 0.00 | 0.00 | 0.00 | 41 | 1015.1 |
| 20260506191352 | 53 | 224 | 2.0 | 13.0 | 0.00 | 0.00 | 0.00 | 40 | 1015.4 |
| 20260506190850 | 53 | 271 | 4.0 | 15.0 | 0.00 | 0.00 | 0.00 | 41 | 1015.2 |
| 20260506190346 | 54 | 214 | 4.0 | 15.0 | 0.00 | 0.00 | 0.00 | 43 | 1015.4 |
| 20260506185843 | 54 | 314 | 3.0 | 11.0 | 0.00 | 0.00 | 0.00 | 41 | 1015.2 |
| 20260506185340 | 54 | 166 | 12.0 | 14.0 | 0.00 | 0.00 | 0.00 | 39 | 1015.1 |
| 20260506184837 | 54 | 192 | 10.0 | 16.0 | 0.00 | 0.00 | 0.00 | 40 | 1015.1 |
| 20260506184334 | 54 | 219 | 9.0 | 19.0 | 0.00 | 0.00 | 0.00 | 41 | 1015.1 |
| 20260506183832 | 54 | 245 | 10.0 | 14.0 | 0.00 | 0.00 | 0.00 | 40 | 1015.2 |
| 20260506183327 | 54 | 201 | 7.0 | 15.0 | 0.00 | 0.00 | 0.00 | 41 | 1015.2 |
| 20260506182824 | 54 | 211 | 13.0 | 19.0 | 0.00 | 0.00 | 0.00 | 40 | 1015.0 |
| 20260506182321 | 54 | 188 | 14.0 | 19.0 | 0.00 | 0.00 | 0.00 | 43 | 1015.4 |
| 20260506181819 | 54 | 228 | 9.0 | 15.0 | 0.00 | 0.00 | 0.00 | 42 | 1015.2 |
| 20260506181317 | 54 | 174 | 3.0 | 20.0 | 0.00 | 0.00 | 0.00 | 42 | 1015.4 |
| 20260506180814 | 54 | 197 | 18.0 | 22.0 | 0.00 | 0.00 | 0.00 | 39 | 1014.9 |
| 20260506180310 | 53 | 237 | 3.0 | 11.0 | 0.00 | 0.00 | 0.00 | 42 | 1015.1 |
| 20260506175806 | 54 | 201 | 6.0 | 18.0 | 0.00 | 0.00 | 0.00 | 38 | 1015.2 |
| 20260506175306 | 53 | 205 | 11.0 | 15.0 | 0.00 | 0.00 | 0.00 | 41 | 1015.3 |
| 20260506174800 | 54 | 185 | 10.0 | 20.0 | 0.00 | 0.00 | 0.00 | 41 | 1015.4 |
| 20260506174257 | 53 | 199 | 8.0 | 19.0 | 0.00 | 0.00 | 0.00 | 41 | 1015.7 |
| 20260506173755 | 55 | 201 | 14.0 | 18.0 | 0.00 | 0.00 | 0.00 | 40 | 1015.4 |
| 20260506173252 | 54 | 187 | 8.0 | 21.0 | 0.00 | 0.00 | 0.00 | 41 | 1015.4 |
| 20260506172748 | 53 | 192 | 9.0 | 17.0 | 0.00 | 0.00 | 0.00 | 40 | 1015.4 |
| 20260506172245 | 53 | 216 | 8.0 | 20.0 | 0.00 | 0.00 | 0.00 | 39 | 1015.5 |
| 20260506171743 | 54 | 188 | 7.0 | 23.0 | 0.00 | 0.00 | 0.00 | 39 | 1015.5 |
| 20260506171240 | 53 | 211 | 4.0 | 11.0 | 0.00 | 0.00 | 0.00 | 43 | 1015.7 |
| 20260506170738 | 53 | 221 | 5.0 | 16.0 | 0.00 | 0.00 | 0.00 | 40 | 1015.7 |
| 20260506170233 | 52 | 203 | 7.0 | 15.0 | 0.00 | 0.00 | 0.00 | 42 | 1015.7 |
| 20260506165732 | 53 | 203 | 7.0 | 16.0 | 0.00 | 0.00 | 0.00 | 39 | 1015.4 |
| 20260506165229 | 54 | 211 | 7.0 | 19.0 | 0.00 | 0.00 | 0.00 | 40 | 1015.6 |
| 20260506164726 | 53 | 211 | 6.0 | 13.0 | 0.00 | 0.00 | 0.00 | 39 | 1015.6 |
| 20260506164223 | 53 | 185 | 0.0 | 23.0 | 0.00 | 0.00 | 0.00 | 42 | 1015.8 |